Terminal Aerodrome Forecast
Issued by NWS Pocatello, ID

Home | Current Version | Previous Version | Text Only | Print | Product List | Glossary On
Versions: 1 2 3 4 5 6 7 8 9 10 11 12 13 14 15 16 17 18 19 20 21
000
FTUS45 KPIH 172337
TAFPIH
TAF
KPIH 172337Z 1800/1824 26025G35KT P6SM FEW025 SCT080
     FM180100 27020G30KT P6SM SCT050 BKN080
     FM180200 25015KT P6SM FEW040 SCT080
     FM181100 19006KT P6SM SCT025
     FM181800 20010G20KT P6SM SCT025 BKN035=

USA.gov is the U.S. government's official web portal to all federal, state and local government web resources and services.